createdAt,value
2023-04-03T00:01:39.635Z,3.39
2023-04-03T00:04:45.927Z,3.65
2023-04-03T00:07:52.115Z,3.70
2023-04-03T00:10:58.538Z,4.21
2023-04-03T00:14:05.919Z,5.02
2023-04-03T00:17:12.360Z,5.27
2023-04-03T00:20:18.599Z,5.37
2023-04-03T00:23:25.804Z,5.44
2023-04-03T00:26:31.928Z,5.37
2023-04-03T00:29:39.476Z,5.39
2023-04-03T00:32:45.933Z,4.19
2023-04-03T00:35:52.498Z,3.92
2023-04-03T00:38:59.042Z,4.72
2023-04-03T00:42:05.357Z,4.33
2023-04-03T00:45:35.087Z,3.91
2023-04-03T00:48:43.829Z,4.01
2023-04-03T00:51:50.224Z,3.73
2023-04-03T00:54:59.732Z,3.83
2023-04-03T00:58:08.017Z,3.91
2023-04-03T01:01:20.964Z,4.22
2023-04-03T01:04:32.707Z,4.51
2023-04-03T01:07:39.214Z,3.87
2023-04-03T01:10:46.138Z,3.53
2023-04-03T01:13:52.430Z,3.66
2023-04-03T01:17:00.573Z,4.09
2023-04-03T01:20:47.286Z,3.97
2023-04-03T01:24:08.478Z,4.63
2023-04-03T01:27:14.588Z,4.87
2023-04-03T01:30:24.703Z,4.74
2023-04-03T01:33:32.872Z,4.97
2023-04-03T01:36:38.800Z,4.86
2023-04-03T01:39:44.739Z,4.45
2023-04-03T01:42:50.626Z,4.30
2023-04-03T01:45:56.873Z,3.92
2023-04-03T01:49:04.872Z,4.41
2023-04-03T01:52:11.196Z,4.50
2023-04-03T01:55:17.771Z,4.58
2023-04-03T01:58:24.023Z,4.90
2023-04-03T02:01:30.432Z,4.96
2023-04-03T02:04:38.196Z,4.94
2023-04-03T02:07:44.608Z,4.96
2023-04-03T02:10:51.458Z,5.01
2023-04-03T02:13:57.906Z,5.08
2023-04-03T02:17:09.611Z,5.14
2023-04-03T02:20:17.254Z,5.10
2023-04-03T02:23:23.412Z,5.24
2023-04-03T02:26:29.794Z,5.01
2023-04-03T02:29:36.035Z,4.88
2023-04-03T02:32:42.420Z,5.02
2023-04-03T02:35:55.283Z,4.62
2023-04-03T02:39:02.813Z,4.54
2023-04-03T02:42:09.402Z,4.11
2023-04-03T02:45:15.897Z,4.42
2023-04-03T02:48:22.055Z,4.13
2023-04-03T02:51:29.709Z,3.93
2023-04-03T02:54:38.444Z,3.55
2023-04-03T02:57:44.867Z,3.24
2023-04-03T03:00:51.398Z,2.99
2023-04-03T03:03:57.337Z,3.24
2023-04-03T03:07:04.927Z,2.73
2023-04-03T03:10:11.719Z,2.39
2023-04-03T03:13:17.770Z,2.42
2023-04-03T03:16:24.098Z,3.10
2023-04-03T03:19:30.582Z,3.46
2023-04-03T03:22:38.361Z,3.59
2023-04-03T03:25:44.531Z,3.95
2023-04-03T03:28:50.908Z,3.77
2023-04-03T03:31:57.097Z,3.94
2023-04-03T03:35:02.988Z,4.26
2023-04-03T03:38:11.097Z,4.39
2023-04-03T03:41:17.181Z,4.36
2023-04-03T03:44:23.801Z,4.09
2023-04-03T03:47:30.134Z,4.21
2023-04-03T03:50:36.536Z,4.09
2023-04-03T03:53:44.416Z,4.35
2023-04-03T03:56:50.827Z,4.15
2023-04-03T03:59:57.171Z,3.91
2023-04-03T04:03:04.046Z,3.86
2023-04-03T04:06:10.588Z,3.92
2023-04-03T04:09:18.281Z,4.02
2023-04-03T04:12:24.349Z,3.92
2023-04-03T04:15:30.445Z,3.86
2023-04-03T04:18:36.793Z,3.44
2023-04-03T04:21:43.242Z,3.31
2023-04-03T04:24:50.514Z,3.25
2023-04-03T04:27:56.709Z,3.77
2023-04-03T04:31:02.946Z,3.76
2023-04-03T04:34:09.241Z,2.97
2023-04-03T04:37:15.630Z,2.89
2023-04-03T04:40:24.101Z,3.58
2023-04-03T04:43:30.185Z,2.87
2023-04-03T04:46:36.722Z,2.72
2023-04-03T04:50:01.715Z,2.82
2023-04-03T04:53:08.135Z,2.43
2023-04-03T04:56:15.992Z,2.92
2023-04-03T04:59:22.501Z,2.83
2023-04-03T05:02:28.806Z,3.44
2023-04-03T05:05:35.363Z,3.73
2023-04-03T05:08:41.736Z,4.32
2023-04-03T05:11:49.378Z,4.25
2023-04-03T05:14:55.639Z,4.64
2023-04-03T05:18:02.287Z,5.01
2023-04-03T05:21:08.369Z,4.83
2023-04-03T05:24:14.679Z,3.93
2023-04-03T05:27:22.350Z,4.16
2023-04-03T05:30:28.697Z,4.28
2023-04-03T05:33:34.684Z,4.64
2023-04-03T05:36:40.846Z,4.76
2023-04-03T05:39:47.390Z,4.92
2023-04-03T05:42:55.110Z,4.56
2023-04-03T05:46:01.610Z,5.40
2023-04-03T05:49:07.726Z,5.77
2023-04-03T05:52:22.828Z,6.14
2023-04-03T05:55:29.194Z,6.34
2023-04-03T05:58:36.825Z,6.35
2023-04-03T06:01:43.437Z,6.25
2023-04-03T06:04:50.213Z,6.66
2023-04-03T06:07:56.852Z,6.61
2023-04-03T06:11:03.375Z,6.46
2023-04-03T06:14:11.326Z,6.25
2023-04-03T06:17:19.178Z,5.75
2023-04-03T06:20:25.704Z,5.80
2023-04-03T06:23:32.103Z,5.90
2023-04-03T06:26:38.399Z,5.76
2023-04-03T06:29:46.564Z,6.14
2023-04-03T06:32:54.909Z,6.60
2023-04-03T06:36:01.716Z,7.08
2023-04-03T06:39:08.662Z,7.06
2023-04-03T06:42:14.835Z,6.76
2023-04-03T06:45:22.831Z,6.98
2023-04-03T06:48:29.199Z,7.00
2023-04-03T06:51:35.165Z,6.86
2023-04-03T06:54:41.883Z,7.42
2023-04-03T06:57:48.508Z,7.56
2023-04-03T07:00:56.080Z,6.90
2023-04-03T07:04:02.490Z,7.85
2023-04-03T07:07:08.684Z,7.72
2023-04-03T07:10:14.818Z,7.92
2023-04-03T07:13:20.917Z,7.69
2023-04-03T07:16:28.114Z,7.71
2023-04-03T07:19:34.433Z,8.19
2023-04-03T07:22:40.323Z,7.99
2023-04-03T07:25:47.336Z,8.14
2023-04-03T07:28:53.730Z,7.71
2023-04-03T07:32:01.792Z,8.26
2023-04-03T07:35:08.266Z,8.52
2023-04-03T07:38:14.609Z,8.76
2023-04-03T07:41:23.675Z,8.69
2023-04-03T07:44:30.260Z,9.02
2023-04-03T07:47:38.190Z,8.64
2023-04-03T07:50:44.954Z,8.75
2023-04-03T07:53:51.491Z,8.18
2023-04-03T07:56:58.255Z,8.35
2023-04-03T08:00:06.034Z,8.06
2023-04-03T08:03:14.969Z,8.42
2023-04-03T08:06:29.293Z,8.56
2023-04-03T08:09:35.960Z,8.05
2023-04-03T08:12:42.588Z,8.52
2023-04-03T08:15:49.139Z,8.28
2023-04-03T08:18:57.338Z,9.20
2023-04-03T08:22:04.434Z,8.63
2023-04-03T08:25:11.746Z,8.49
2023-04-03T08:28:18.121Z,8.89
2023-04-03T08:31:24.410Z,8.90
2023-04-03T08:34:32.154Z,8.80
2023-04-03T08:37:38.993Z,8.98
2023-04-03T08:40:47.882Z,8.66
2023-04-03T08:44:05.104Z,8.96
2023-04-03T08:47:25.420Z,9.00
2023-04-03T08:50:38.480Z,9.38
2023-04-03T08:53:51.105Z,9.24
2023-04-03T08:56:58.044Z,9.30
2023-04-03T09:00:08.961Z,9.40
2023-04-03T09:03:17.500Z,9.19
2023-04-03T09:06:30.249Z,9.26
2023-04-03T09:09:42.332Z,9.20
2023-04-03T09:12:55.876Z,8.89
2023-04-03T09:16:06.399Z,9.14
2023-04-03T09:19:22.008Z,8.78
2023-04-03T09:22:36.515Z,8.97
2023-04-03T09:25:46.154Z,8.85
2023-04-03T09:28:53.059Z,8.87
2023-04-03T09:32:02.583Z,9.34
2023-04-03T09:35:25.255Z,9.19
2023-04-03T09:38:40.522Z,9.67
2023-04-03T09:42:00.645Z,8.92
2023-04-03T09:45:08.463Z,9.44
2023-04-03T09:48:20.356Z,9.42
2023-04-03T09:51:29.480Z,9.57
2023-04-03T09:54:42.155Z,9.35
2023-04-03T09:57:52.130Z,9.58
2023-04-03T10:01:01.202Z,9.67
2023-04-03T10:04:12.948Z,9.70
2023-04-03T10:07:31.839Z,9.99
2023-04-03T10:10:40.657Z,10.33
2023-04-03T10:13:56.389Z,10.27
2023-04-03T10:17:15.593Z,10.54
2023-04-03T10:20:32.896Z,10.43
2023-04-03T10:23:46.289Z,9.77
2023-04-03T10:27:01.408Z,9.93
2023-04-03T10:30:22.999Z,9.81
2023-04-03T10:33:39.753Z,9.68
2023-04-03T10:36:53.140Z,9.73
2023-04-03T10:40:03.671Z,9.85
2023-04-03T10:43:17.735Z,9.85
2023-04-03T10:46:30.053Z,9.99
2023-04-03T10:49:59.427Z,9.79
2023-04-03T10:53:15.845Z,9.91
2023-04-03T10:56:28.317Z,9.62
2023-04-03T10:59:39.370Z,9.67
2023-04-03T11:02:53.448Z,9.72
2023-04-03T11:06:02.723Z,9.94
2023-04-03T11:09:21.998Z,9.60
2023-04-03T11:12:36.789Z,9.48
2023-04-03T11:15:46.304Z,9.75
2023-04-03T11:18:56.862Z,9.66
2023-04-03T11:22:08.334Z,9.89
2023-04-03T11:25:22.777Z,9.92
2023-04-03T11:28:29.094Z,10.01
2023-04-03T11:32:03.540Z,9.79
2023-04-03T11:35:11.096Z,9.72
2023-04-03T11:38:25.754Z,9.90
2023-04-03T11:41:34.012Z,10.05
2023-04-03T11:44:40.774Z,9.77
2023-04-03T11:47:51.899Z,10.09
2023-04-03T11:50:59.057Z,9.70
2023-04-03T11:54:44.419Z,9.91
2023-04-03T11:58:12.953Z,9.82
2023-04-03T12:01:46.980Z,9.72
2023-04-03T12:05:26.262Z,9.82
2023-04-03T12:08:47.128Z,9.59
2023-04-03T12:11:55.133Z,9.62
2023-04-03T12:15:26.352Z,9.31
2023-04-03T12:19:01.261Z,9.43
2023-04-03T12:22:16.907Z,9.75
2023-04-03T12:25:51.599Z,9.84
2023-04-03T12:28:58.366Z,9.71
2023-04-03T12:32:15.961Z,9.40
2023-04-03T12:35:30.337Z,8.53
2023-04-03T12:39:17.757Z,8.51
2023-04-03T12:42:42.974Z,8.21
2023-04-03T12:45:56.211Z,8.15
2023-04-03T12:49:02.644Z,8.00
2023-04-03T12:52:22.126Z,7.83
2023-04-03T12:55:29.037Z,8.43
2023-04-03T12:58:36.780Z,8.18
2023-04-03T13:01:42.938Z,8.33
2023-04-03T13:04:49.688Z,8.31
2023-04-03T13:08:03.039Z,8.46
2023-04-03T13:11:13.836Z,8.35
2023-04-03T13:14:23.436Z,8.58
2023-04-03T13:17:30.647Z,8.40
2023-04-03T13:20:38.885Z,8.51
2023-04-03T13:23:51.547Z,8.53
2023-04-03T13:26:59.945Z,8.53
2023-04-03T13:30:09.469Z,8.31
2023-04-03T13:33:24.483Z,8.31
2023-04-03T13:36:34.049Z,8.41
2023-04-03T13:39:41.969Z,8.30
2023-04-03T13:42:49.119Z,8.37
2023-04-03T13:46:01.555Z,8.08
2023-04-03T13:49:21.308Z,7.98
2023-04-03T13:52:32.071Z,8.40
2023-04-03T13:55:54.026Z,8.23
2023-04-03T13:59:06.989Z,8.17
2023-04-03T14:02:21.510Z,8.41
2023-04-03T14:05:27.920Z,7.97
2023-04-03T14:08:42.384Z,8.28
2023-04-03T14:11:54.562Z,8.31
2023-04-03T14:15:02.369Z,7.91
2023-04-03T14:18:14.134Z,8.12
2023-04-03T14:21:22.419Z,7.98
2023-04-03T14:24:29.300Z,8.24
2023-04-03T14:27:38.939Z,7.87
2023-04-03T14:30:45.141Z,8.29
2023-04-03T14:33:52.835Z,7.87
2023-04-03T14:36:59.133Z,8.11
2023-04-03T14:40:07.106Z,8.44
2023-04-03T14:43:15.154Z,8.16
2023-04-03T14:46:28.355Z,8.04
2023-04-03T14:49:40.219Z,8.15
2023-04-03T14:52:47.693Z,7.51
2023-04-03T14:55:54.143Z,7.86
2023-04-03T14:59:04.560Z,7.61
2023-04-03T15:02:31.465Z,7.75
2023-04-03T15:05:39.572Z,7.66
2023-04-03T15:08:47.897Z,7.71
2023-04-03T15:11:56.666Z,7.99
2023-04-03T15:15:03.793Z,7.93
2023-04-03T15:18:16.656Z,7.49
2023-04-03T15:21:24.339Z,7.55
2023-04-03T15:24:30.861Z,7.36
2023-04-03T15:27:37.576Z,7.37
2023-04-03T15:30:43.981Z,7.20
2023-04-03T15:33:50.456Z,7.61
2023-04-03T15:36:57.834Z,6.86
2023-04-03T15:40:05.004Z,6.81
2023-04-03T15:43:12.061Z,7.19
2023-04-03T15:46:18.486Z,6.94
2023-04-03T15:49:25.050Z,7.40
2023-04-03T15:52:32.441Z,7.10
2023-04-03T15:55:40.634Z,6.93
2023-04-03T15:58:46.825Z,7.05
2023-04-03T16:01:53.702Z,7.19
2023-04-03T16:05:00.119Z,6.95
2023-04-03T16:08:09.056Z,7.10
2023-04-03T16:11:15.028Z,7.05
2023-04-03T16:14:21.329Z,7.09
2023-04-03T16:17:29.310Z,7.04
2023-04-03T16:20:37.087Z,6.57
2023-04-03T16:23:45.825Z,6.86
2023-04-03T16:26:52.329Z,6.93
2023-04-03T16:29:58.520Z,6.82
2023-04-03T16:33:05.395Z,6.70
2023-04-03T16:36:11.802Z,6.60
2023-04-03T16:39:19.718Z,6.79
2023-04-03T16:42:26.123Z,6.52
2023-04-03T16:45:32.369Z,6.56
2023-04-03T16:48:38.818Z,6.42
2023-04-03T16:51:45.285Z,6.66
2023-04-03T16:54:56.699Z,6.64
2023-04-03T16:58:03.230Z,6.36
2023-04-03T17:01:14.272Z,6.40
2023-04-03T17:04:20.577Z,6.26
2023-04-03T17:07:28.218Z,6.34
2023-04-03T17:10:36.544Z,6.27
2023-04-03T17:13:43.110Z,6.51
2023-04-03T17:16:49.383Z,6.00
2023-04-03T17:19:57.040Z,5.97
2023-04-03T17:23:03.585Z,6.37
2023-04-03T17:26:11.433Z,5.67
2023-04-03T17:29:17.644Z,5.90
2023-04-03T17:32:26.570Z,5.81
2023-04-03T17:35:33.180Z,6.09
2023-04-03T17:38:39.414Z,6.06
2023-04-03T17:41:47.670Z,6.30
2023-04-03T17:44:54.209Z,5.76
2023-04-03T17:48:00.992Z,6.15
2023-04-03T17:51:08.295Z,5.89
2023-04-03T17:54:14.921Z,5.44
2023-04-03T17:57:22.664Z,5.62
2023-04-03T18:00:29.242Z,5.04
2023-04-03T18:03:35.816Z,5.31
2023-04-03T18:06:45.855Z,5.39
2023-04-03T18:09:53.909Z,5.51
2023-04-03T18:13:01.855Z,5.47
2023-04-03T18:16:09.938Z,5.72
2023-04-03T18:22:26.714Z,4.52
2023-04-03T18:28:49.631Z,4.97
2023-04-03T18:31:58.047Z,4.99
2023-04-03T18:35:04.449Z,5.26
2023-04-03T18:38:10.601Z,4.57
2023-04-03T18:41:16.843Z,4.65
2023-04-03T18:44:26.323Z,4.65
2023-04-03T18:47:33.399Z,4.31
2023-04-03T18:50:39.739Z,4.37
2023-04-03T18:53:45.861Z,4.25
2023-04-03T18:56:52.046Z,4.31
2023-04-03T18:59:59.557Z,4.59
2023-04-03T19:03:06.353Z,4.52
2023-04-03T19:06:13.174Z,4.37
2023-04-03T19:09:19.536Z,4.14
2023-04-03T19:12:26.148Z,4.18
2023-04-03T19:15:33.884Z,4.20
2023-04-03T19:18:40.091Z,4.10
2023-04-03T19:21:46.711Z,4.52
2023-04-03T19:24:53.122Z,4.62
2023-04-03T19:27:59.814Z,4.48
2023-04-03T19:31:15.136Z,4.69
2023-04-03T19:34:21.372Z,4.37
2023-04-03T19:37:27.669Z,4.54
2023-04-03T19:40:35.649Z,4.26
2023-04-03T19:43:42.832Z,4.20
2023-04-03T19:46:50.981Z,4.02
2023-04-03T19:49:58.078Z,3.97
2023-04-03T19:53:04.264Z,4.23
2023-04-03T19:56:11.066Z,4.51
2023-04-03T19:59:17.934Z,4.29
2023-04-03T20:02:25.692Z,4.02
2023-04-03T20:05:32.422Z,4.28
2023-04-03T20:08:38.452Z,4.80
2023-04-03T20:11:47.385Z,4.24
2023-04-03T20:14:53.887Z,4.50
2023-04-03T20:18:01.575Z,4.38
2023-04-03T20:21:08.772Z,4.65
2023-04-03T20:24:16.455Z,4.46
2023-04-03T20:27:24.625Z,4.63
2023-04-03T20:30:30.965Z,4.72
2023-04-03T20:33:39.146Z,4.54
2023-04-03T20:36:49.646Z,4.99
2023-04-03T20:39:56.252Z,4.95
2023-04-03T20:43:03.334Z,4.95
2023-04-03T20:46:09.485Z,4.68
2023-04-03T20:49:17.144Z,4.52
2023-04-03T20:52:23.140Z,4.85
2023-04-03T20:55:29.428Z,4.83
2023-04-03T20:58:38.450Z,4.96
2023-04-03T21:01:44.952Z,4.96
2023-04-03T21:04:55.390Z,5.00
2023-04-03T21:08:38.676Z,5.12
2023-04-03T21:12:22.037Z,5.15
2023-04-03T21:15:52.128Z,5.12
2023-04-03T21:19:09.397Z,5.14
2023-04-03T21:22:17.018Z,5.16
2023-04-03T21:25:23.298Z,5.17
2023-04-03T21:28:29.469Z,5.09
2023-04-03T21:31:53.883Z,5.03
2023-04-03T21:35:01.622Z,4.85
2023-04-03T21:38:07.947Z,4.82
2023-04-03T21:41:14.287Z,4.94
2023-04-03T21:44:20.606Z,5.07
2023-04-03T21:47:27.004Z,5.08
2023-04-03T21:50:34.752Z,5.08
2023-04-03T21:53:42.106Z,5.10
2023-04-03T21:56:49.760Z,5.17
2023-04-03T21:59:56.475Z,5.02
2023-04-03T22:03:10.108Z,5.38
2023-04-03T22:06:18.946Z,5.39
2023-04-03T22:09:25.335Z,5.55
2023-04-03T22:12:31.513Z,5.31
2023-04-03T22:15:42.947Z,5.46
2023-04-03T22:18:49.142Z,5.60
2023-04-03T22:21:56.689Z,5.05
2023-04-03T22:25:03.379Z,5.22
2023-04-03T22:28:09.645Z,5.02
2023-04-03T22:31:17.074Z,4.98
2023-04-03T22:34:23.435Z,5.09
2023-04-03T22:37:31.072Z,5.27
2023-04-03T22:40:37.769Z,4.94
2023-04-03T22:43:43.947Z,4.86
2023-04-03T22:46:49.836Z,5.44
2023-04-03T22:49:55.771Z,5.55
2023-04-03T22:53:03.125Z,5.30
2023-04-03T22:56:11.156Z,5.28
2023-04-03T22:59:17.301Z,5.51
2023-04-03T23:02:23.477Z,5.49
2023-04-03T23:05:30.474Z,4.84
2023-04-03T23:08:39.263Z,5.55
2023-04-03T23:11:45.664Z,5.54
2023-04-03T23:14:52.074Z,5.34
2023-04-03T23:17:58.414Z,5.35
2023-04-03T23:21:04.820Z,5.06
2023-04-03T23:24:13.032Z,5.00
2023-04-03T23:27:19.425Z,5.02
2023-04-03T23:30:25.782Z,5.03
2023-04-03T23:33:33.342Z,5.66
2023-04-03T23:36:39.954Z,5.51
2023-04-03T23:39:47.842Z,4.58
2023-04-03T23:42:53.897Z,5.17
2023-04-03T23:46:00.141Z,5.23
2023-04-03T23:49:06.144Z,5.37
2023-04-03T23:52:12.396Z,5.28
2023-04-03T23:55:20.084Z,5.42
2023-04-03T23:58:26.350Z,5.37
